sensor_id;sensor_type;location;lat;lon;timestamp;P1;durP1;ratioP1;P2;durP2;ratioP2
9280;SDS011;4679;47.966;7.958;2023-04-25T05:46:35;2.47;;;1.87;;
9280;SDS011;4679;47.966;7.958;2023-04-25T05:48:37;2.13;;;1.93;;
9280;SDS011;4679;47.966;7.958;2023-04-25T05:50:39;2.97;;;2.30;;
9280;SDS011;4679;47.966;7.958;2023-04-25T05:52:40;6.10;;;3.77;;
9280;SDS011;4679;47.966;7.958;2023-04-25T05:54:42;4.60;;;2.83;;
9280;SDS011;4679;47.966;7.958;2023-04-25T05:56:44;1.00;;;1.00;;
9280;SDS011;4679;47.966;7.958;2023-04-25T05:58:46;0.93;;;0.50;;
9280;SDS011;4679;47.966;7.958;2023-04-25T06:00:47;1.23;;;0.37;;
9280;SDS011;4679;47.966;7.958;2023-04-25T06:02:51;0.70;;;0.30;;
9280;SDS011;4679;47.966;7.958;2023-04-25T06:04:52;0.20;;;0.20;;
9280;SDS011;4679;47.966;7.958;2023-04-25T06:06:54;0.50;;;0.50;;
9280;SDS011;4679;47.966;7.958;2023-04-25T06:08:56;0.60;;;0.50;;
9280;SDS011;4679;47.966;7.958;2023-04-25T06:10:57;0.60;;;0.50;;
9280;SDS011;4679;47.966;7.958;2023-04-25T06:12:59;1.73;;;0.50;;
9280;SDS011;4679;47.966;7.958;2023-04-25T06:15:01;0.93;;;0.33;;
9280;SDS011;4679;47.966;7.958;2023-04-25T06:17:02;0.30;;;0.30;;
9280;SDS011;4679;47.966;7.958;2023-04-25T06:19:09;0.40;;;0.40;;
9280;SDS011;4679;47.966;7.958;2023-04-25T06:21:11;0.50;;;0.40;;
9280;SDS011;4679;47.966;7.958;2023-04-25T06:23:13;0.20;;;0.20;;
9280;SDS011;4679;47.966;7.958;2023-04-25T06:25:14;0.37;;;0.37;;
9280;SDS011;4679;47.966;7.958;2023-04-25T06:27:16;0.30;;;0.30;;
9280;SDS011;4679;47.966;7.958;2023-04-25T06:29:18;0.37;;;0.30;;
9280;SDS011;4679;47.966;7.958;2023-04-25T06:31:20;0.10;;;0.10;;
9280;SDS011;4679;47.966;7.958;2023-04-25T06:33:21;0.20;;;0.10;;
9280;SDS011;4679;47.966;7.958;2023-04-25T06:35:25;0.53;;;0.10;;
9280;SDS011;4679;47.966;7.958;2023-04-25T06:37:27;0.63;;;0.27;;
9280;SDS011;4679;47.966;7.958;2023-04-25T06:39:29;0.30;;;0.20;;
9280;SDS011;4679;47.966;7.958;2023-04-25T06:41:30;0.63;;;0.63;;
9280;SDS011;4679;47.966;7.958;2023-04-25T06:43:32;0.47;;;0.30;;
9280;SDS011;4679;47.966;7.958;2023-04-25T06:45:33;0.57;;;0.37;;
9280;SDS011;4679;47.966;7.958;2023-04-25T06:47:35;1.03;;;0.27;;
9280;SDS011;4679;47.966;7.958;2023-04-25T06:49:37;0.20;;;0.20;;
9280;SDS011;4679;47.966;7.958;2023-04-25T06:51:40;0.20;;;0.20;;
9280;SDS011;4679;47.966;7.958;2023-04-25T06:53:41;1.50;;;0.73;;
9280;SDS011;4679;47.966;7.958;2023-04-25T06:55:43;1.13;;;0.20;;
9280;SDS011;4679;47.966;7.958;2023-04-25T06:57:45;3.03;;;0.30;;
9280;SDS011;4679;47.966;7.958;2023-04-25T06:59:46;1.30;;;0.30;;
9280;SDS011;4679;47.966;7.958;2023-04-25T07:01:48;0.67;;;0.20;;
9280;SDS011;4679;47.966;7.958;2023-04-25T07:03:50;0.27;;;0.20;;
9280;SDS011;4679;47.966;7.958;2023-04-25T07:05:51;0.20;;;0.20;;
9280;SDS011;4679;47.966;7.958;2023-04-25T07:07:54;0.20;;;0.20;;
9280;SDS011;4679;47.966;7.958;2023-04-25T07:09:56;1.40;;;0.30;;
9280;SDS011;4679;47.966;7.958;2023-04-25T07:11:57;0.83;;;0.20;;
9280;SDS011;4679;47.966;7.958;2023-04-25T07:13:59;1.27;;;0.30;;
9280;SDS011;4679;47.966;7.958;2023-04-25T07:16:01;1.23;;;0.57;;
9280;SDS011;4679;47.966;7.958;2023-04-25T07:18:03;0.23;;;0.20;;
9280;SDS011;4679;47.966;7.958;2023-04-25T07:20:05;1.67;;;0.40;;
9280;SDS011;4679;47.966;7.958;2023-04-25T07:22:09;0.20;;;0.20;;
9280;SDS011;4679;47.966;7.958;2023-04-25T07:24:12;0.27;;;0.23;;
9280;SDS011;4679;47.966;7.958;2023-04-25T07:26:14;0.10;;;0.10;;
9280;SDS011;4679;47.966;7.958;2023-04-25T07:28:15;0.30;;;0.20;;
9280;SDS011;4679;47.966;7.958;2023-04-25T07:30:18;0.23;;;0.20;;
9280;SDS011;4679;47.966;7.958;2023-04-25T07:32:19;0.20;;;0.20;;
9280;SDS011;4679;47.966;7.958;2023-04-25T07:34:21;0.27;;;0.20;;
9280;SDS011;4679;47.966;7.958;2023-04-25T07:36:22;0.53;;;0.30;;
9280;SDS011;4679;47.966;7.958;2023-04-25T07:38:24;0.40;;;0.30;;
9280;SDS011;4679;47.966;7.958;2023-04-25T07:40:27;0.40;;;0.30;;
9280;SDS011;4679;47.966;7.958;2023-04-25T07:42:29;1.60;;;0.60;;
9280;SDS011;4679;47.966;7.958;2023-04-25T07:44:30;0.20;;;0.20;;
9280;SDS011;4679;47.966;7.958;2023-04-25T07:46:34;0.30;;;0.30;;
9280;SDS011;4679;47.966;7.958;2023-04-25T07:48:36;0.47;;;0.37;;
9280;SDS011;4679;47.966;7.958;2023-04-25T07:50:38;0.40;;;0.40;;
9280;SDS011;4679;47.966;7.958;2023-04-25T07:52:39;0.50;;;0.50;;
9280;SDS011;4679;47.966;7.958;2023-04-25T07:54:41;0.50;;;0.50;;
9280;SDS011;4679;47.966;7.958;2023-04-25T07:56:44;2.20;;;0.70;;
9280;SDS011;4679;47.966;7.958;2023-04-25T07:58:45;1.47;;;1.37;;
9280;SDS011;4679;47.966;7.958;2023-04-25T08:00:47;1.20;;;1.07;;
9280;SDS011;4679;47.966;7.958;2023-04-25T08:02:49;0.87;;;0.70;;
9280;SDS011;4679;47.966;7.958;2023-04-25T08:04:51;1.03;;;0.80;;
9280;SDS011;4679;47.966;7.958;2023-04-25T08:06:53;2.43;;;0.80;;
9280;SDS011;4679;47.966;7.958;2023-04-25T08:08:54;2.17;;;0.77;;
9280;SDS011;4679;47.966;7.958;2023-04-25T08:10:56;0.50;;;0.50;;
9280;SDS011;4679;47.966;7.958;2023-04-25T08:12:59;0.47;;;0.30;;
9280;SDS011;4679;47.966;7.958;2023-04-25T08:15:01;0.27;;;0.27;;
9280;SDS011;4679;47.966;7.958;2023-04-25T08:17:03;0.30;;;0.30;;
9280;SDS011;4679;47.966;7.958;2023-04-25T08:19:05;0.20;;;0.20;;
9280;SDS011;4679;47.966;7.958;2023-04-25T08:21:07;0.40;;;0.40;;
9280;SDS011;4679;47.966;7.958;2023-04-25T08:23:11;0.53;;;0.40;;
9280;SDS011;4679;47.966;7.958;2023-04-25T08:25:13;0.43;;;0.30;;
9280;SDS011;4679;47.966;7.958;2023-04-25T08:27:15;0.33;;;0.30;;
9280;SDS011;4679;47.966;7.958;2023-04-25T08:29:18;0.40;;;0.40;;
9280;SDS011;4679;47.966;7.958;2023-04-25T08:31:20;1.70;;;0.50;;
9280;SDS011;4679;47.966;7.958;2023-04-25T08:33:21;0.50;;;0.50;;
9280;SDS011;4679;47.966;7.958;2023-04-25T08:35:23;1.20;;;0.60;;
9280;SDS011;4679;47.966;7.958;2023-04-25T08:37:25;0.80;;;0.50;;
9280;SDS011;4679;47.966;7.958;2023-04-25T08:39:26;0.90;;;0.53;;
9280;SDS011;4679;47.966;7.958;2023-04-25T08:41:28;1.20;;;0.70;;
9280;SDS011;4679;47.966;7.958;2023-04-25T08:43:30;0.50;;;0.50;;
9280;SDS011;4679;47.966;7.958;2023-04-25T08:45:33;0.90;;;0.70;;
9280;SDS011;4679;47.966;7.958;2023-04-25T08:47:36;0.60;;;0.60;;
9280;SDS011;4679;47.966;7.958;2023-04-25T08:49:39;1.30;;;0.87;;
9280;SDS011;4679;47.966;7.958;2023-04-25T08:51:45;1.97;;;0.90;;
9280;SDS011;4679;47.966;7.958;2023-04-25T08:53:48;1.30;;;0.90;;
9280;SDS011;4679;47.966;7.958;2023-04-25T08:55:52;1.10;;;1.10;;
9280;SDS011;4679;47.966;7.958;2023-04-25T08:57:55;0.90;;;0.90;;
9280;SDS011;4679;47.966;7.958;2023-04-25T08:59:57;0.90;;;0.90;;
9280;SDS011;4679;47.966;7.958;2023-04-25T09:02:02;1.00;;;1.00;;
9280;SDS011;4679;47.966;7.958;2023-04-25T09:04:04;1.50;;;1.00;;
9280;SDS011;4679;47.966;7.958;2023-04-25T09:06:06;1.50;;;1.10;;
9280;SDS011;4679;47.966;7.958;2023-04-25T09:08:11;1.17;;;0.67;;
9280;SDS011;4679;47.966;7.958;2023-04-25T09:10:13;2.23;;;1.00;;
9280;SDS011;4679;47.966;7.958;2023-04-25T09:12:15;1.00;;;0.90;;
9280;SDS011;4679;47.966;7.958;2023-04-25T09:14:17;1.43;;;0.83;;
9280;SDS011;4679;47.966;7.958;2023-04-25T09:16:20;2.40;;;0.83;;
9280;SDS011;4679;47.966;7.958;2023-04-25T09:18:24;2.47;;;0.90;;
9280;SDS011;4679;47.966;7.958;2023-04-25T09:20:26;2.53;;;0.87;;
9280;SDS011;4679;47.966;7.958;2023-04-25T09:22:29;0.90;;;0.90;;
9280;SDS011;4679;47.966;7.958;2023-04-25T09:24:32;1.47;;;0.60;;
9280;SDS011;4679;47.966;7.958;2023-04-25T09:26:35;0.53;;;0.53;;
9280;SDS011;4679;47.966;7.958;2023-04-25T09:28:38;1.03;;;1.03;;
9280;SDS011;4679;47.966;7.958;2023-04-25T09:30:41;0.77;;;0.40;;
9280;SDS011;4679;47.966;7.958;2023-04-25T09:32:43;1.20;;;0.50;;
9280;SDS011;4679;47.966;7.958;2023-04-25T09:34:48;0.73;;;0.50;;
9280;SDS011;4679;47.966;7.958;2023-04-25T09:36:51;0.73;;;0.60;;
9280;SDS011;4679;47.966;7.958;2023-04-25T09:38:55;0.50;;;0.50;;
9280;SDS011;4679;47.966;7.958;2023-04-25T09:40:57;1.93;;;0.53;;
9280;SDS011;4679;47.966;7.958;2023-04-25T09:42:59;2.00;;;0.60;;
9280;SDS011;4679;47.966;7.958;2023-04-25T09:45:01;1.63;;;0.70;;
9280;SDS011;4679;47.966;7.958;2023-04-25T09:47:04;1.40;;;0.70;;
9280;SDS011;4679;47.966;7.958;2023-04-25T09:49:11;0.60;;;0.60;;
9280;SDS011;4679;47.966;7.958;2023-04-25T09:51:17;0.70;;;0.70;;
9280;SDS011;4679;47.966;7.958;2023-04-25T09:53:18;1.17;;;1.10;;
9280;SDS011;4679;47.966;7.958;2023-04-25T09:55:20;1.03;;;0.93;;
9280;SDS011;4679;47.966;7.958;2023-04-25T09:57:23;1.90;;;1.00;;
9280;SDS011;4679;47.966;7.958;2023-04-25T09:59:26;1.17;;;1.07;;
9280;SDS011;4679;47.966;7.958;2023-04-25T10:01:29;2.80;;;1.10;;
9280;SDS011;4679;47.966;7.958;2023-04-25T10:03:32;1.07;;;0.80;;
9280;SDS011;4679;47.966;7.958;2023-04-25T10:05:34;1.57;;;1.00;;
9280;SDS011;4679;47.966;7.958;2023-04-25T10:07:39;1.27;;;1.17;;
9280;SDS011;4679;47.966;7.958;2023-04-25T10:09:41;4.37;;;1.17;;
9280;SDS011;4679;47.966;7.958;2023-04-25T10:11:45;1.27;;;1.17;;
9280;SDS011;4679;47.966;7.958;2023-04-25T10:13:48;1.43;;;0.93;;
9280;SDS011;4679;47.966;7.958;2023-04-25T10:15:50;1.17;;;1.03;;
9280;SDS011;4679;47.966;7.958;2023-04-25T10:17:54;3.00;;;1.33;;
9280;SDS011;4679;47.966;7.958;2023-04-25T10:19:57;4.10;;;1.30;;
9280;SDS011;4679;47.966;7.958;2023-04-25T10:22:04;2.90;;;1.20;;
9280;SDS011;4679;47.966;7.958;2023-04-25T10:24:11;1.07;;;1.07;;
9280;SDS011;4679;47.966;7.958;2023-04-25T10:26:13;1.00;;;0.90;;
9280;SDS011;4679;47.966;7.958;2023-04-25T10:28:16;1.47;;;1.27;;
9280;SDS011;4679;47.966;7.958;2023-04-25T10:30:18;2.67;;;1.33;;
9280;SDS011;4679;47.966;7.958;2023-04-25T10:32:19;10.13;;;4.67;;
9280;SDS011;4679;47.966;7.958;2023-04-25T10:34:23;7.40;;;3.53;;
9280;SDS011;4679;47.966;7.958;2023-04-25T10:36:26;1.63;;;1.40;;
9280;SDS011;4679;47.966;7.958;2023-04-25T10:38:33;2.57;;;1.57;;
9280;SDS011;4679;47.966;7.958;2023-04-25T10:40:36;1.90;;;1.30;;
9280;SDS011;4679;47.966;7.958;2023-04-25T10:42:38;1.40;;;1.30;;
9280;SDS011;4679;47.966;7.958;2023-04-25T10:44:47;1.40;;;1.30;;
9280;SDS011;4679;47.966;7.958;2023-04-25T10:47:03;4.13;;;1.30;;
9280;SDS011;4679;47.966;7.958;2023-04-25T10:49:05;1.30;;;1.00;;
9280;SDS011;4679;47.966;7.958;2023-04-25T10:51:10;1.20;;;0.90;;
9280;SDS011;4679;47.966;7.958;2023-04-25T10:53:14;0.73;;;0.73;;
9280;SDS011;4679;47.966;7.958;2023-04-25T10:55:16;0.73;;;0.73;;
9280;SDS011;4679;47.966;7.958;2023-04-25T10:57:28;1.43;;;0.90;;
9280;SDS011;4679;47.966;7.958;2023-04-25T10:59:37;3.93;;;1.10;;
9280;SDS011;4679;47.966;7.958;2023-04-25T11:01:41;0.83;;;0.83;;
9280;SDS011;4679;47.966;7.958;2023-04-25T11:03:44;1.63;;;0.93;;
9280;SDS011;4679;47.966;7.958;2023-04-25T11:05:47;0.90;;;0.90;;
9280;SDS011;4679;47.966;7.958;2023-04-25T11:07:51;1.00;;;1.00;;
9280;SDS011;4679;47.966;7.958;2023-04-25T11:09:54;3.43;;;1.67;;
9280;SDS011;4679;47.966;7.958;2023-04-25T11:11:57;1.37;;;1.00;;
9280;SDS011;4679;47.966;7.958;2023-04-25T11:14:01;0.97;;;0.93;;
9280;SDS011;4679;47.966;7.958;2023-04-25T11:16:03;1.93;;;1.00;;
9280;SDS011;4679;47.966;7.958;2023-04-25T11:18:09;1.83;;;1.20;;
9280;SDS011;4679;47.966;7.958;2023-04-25T11:20:10;3.33;;;1.03;;
9280;SDS011;4679;47.966;7.958;2023-04-25T11:22:13;1.80;;;1.00;;
9280;SDS011;4679;47.966;7.958;2023-04-25T11:24:15;1.83;;;1.27;;
9280;SDS011;4679;47.966;7.958;2023-04-25T11:26:18;2.90;;;1.30;;
9280;SDS011;4679;47.966;7.958;2023-04-25T11:28:21;1.83;;;1.00;;
9280;SDS011;4679;47.966;7.958;2023-04-25T11:30:25;1.30;;;1.20;;
9280;SDS011;4679;47.966;7.958;2023-04-25T11:32:28;1.50;;;1.27;;
9280;SDS011;4679;47.966;7.958;2023-04-25T11:34:30;1.00;;;0.97;;
9280;SDS011;4679;47.966;7.958;2023-04-25T11:36:33;1.10;;;1.10;;
9280;SDS011;4679;47.966;7.958;2023-04-25T11:38:35;1.10;;;1.00;;
9280;SDS011;4679;47.966;7.958;2023-04-25T11:40:37;1.60;;;1.07;;
9280;SDS011;4679;47.966;7.958;2023-04-25T11:42:39;2.30;;;1.23;;
9280;SDS011;4679;47.966;7.958;2023-04-25T11:44:44;1.00;;;0.90;;
9280;SDS011;4679;47.966;7.958;2023-04-25T11:46:47;1.20;;;1.07;;
9280;SDS011;4679;47.966;7.958;2023-04-25T11:48:49;1.00;;;0.90;;
9280;SDS011;4679;47.966;7.958;2023-04-25T11:50:53;2.03;;;0.80;;
9280;SDS011;4679;47.966;7.958;2023-04-25T11:52:56;0.90;;;0.90;;
9280;SDS011;4679;47.966;7.958;2023-04-25T11:54:58;2.33;;;0.93;;
9280;SDS011;4679;47.966;7.958;2023-04-25T11:56:59;1.20;;;1.10;;
9280;SDS011;4679;47.966;7.958;2023-04-25T11:59:02;1.00;;;0.90;;
9280;SDS011;4679;47.966;7.958;2023-04-25T12:01:05;0.83;;;0.80;;
9280;SDS011;4679;47.966;7.958;2023-04-25T12:03:08;1.33;;;1.00;;
9280;SDS011;4679;47.966;7.958;2023-04-25T12:05:11;0.90;;;0.90;;
9280;SDS011;4679;47.966;7.958;2023-04-25T12:07:14;1.70;;;0.90;;
9280;SDS011;4679;47.966;7.958;2023-04-25T12:09:17;2.20;;;1.00;;
9280;SDS011;4679;47.966;7.958;2023-04-25T12:11:21;1.00;;;0.80;;
9280;SDS011;4679;47.966;7.958;2023-04-25T12:13:24;1.23;;;1.00;;
9280;SDS011;4679;47.966;7.958;2023-04-25T12:15:28;1.70;;;1.27;;
9280;SDS011;4679;47.966;7.958;2023-04-25T12:17:30;1.13;;;0.70;;
9280;SDS011;4679;47.966;7.958;2023-04-25T12:19:34;0.63;;;0.63;;
9280;SDS011;4679;47.966;7.958;2023-04-25T12:21:37;2.00;;;0.60;;
9280;SDS011;4679;47.966;7.958;2023-04-25T12:23:38;0.80;;;0.80;;
9280;SDS011;4679;47.966;7.958;2023-04-25T12:25:42;0.60;;;0.60;;
9280;SDS011;4679;47.966;7.958;2023-04-25T12:27:45;2.10;;;0.80;;
9280;SDS011;4679;47.966;7.958;2023-04-25T12:29:50;0.60;;;0.60;;
9280;SDS011;4679;47.966;7.958;2023-04-25T12:31:53;0.60;;;0.60;;
9280;SDS011;4679;47.966;7.958;2023-04-25T12:33:56;1.00;;;0.80;;
9280;SDS011;4679;47.966;7.958;2023-04-25T12:35:59;1.90;;;0.90;;
9280;SDS011;4679;47.966;7.958;2023-04-25T12:38:04;0.67;;;0.67;;
9280;SDS011;4679;47.966;7.958;2023-04-25T12:40:06;0.60;;;0.60;;
9280;SDS011;4679;47.966;7.958;2023-04-25T12:42:09;0.60;;;0.60;;
9280;SDS011;4679;47.966;7.958;2023-04-25T12:44:12;0.80;;;0.63;;
9280;SDS011;4679;47.966;7.958;2023-04-25T12:46:14;2.13;;;0.77;;
9280;SDS011;4679;47.966;7.958;2023-04-25T12:48:15;0.70;;;0.70;;
9280;SDS011;4679;47.966;7.958;2023-04-25T12:50:17;0.63;;;0.63;;
9280;SDS011;4679;47.966;7.958;2023-04-25T12:52:20;0.70;;;0.60;;
9280;SDS011;4679;47.966;7.958;2023-04-25T12:54:22;0.60;;;0.60;;
9280;SDS011;4679;47.966;7.958;2023-04-25T12:56:24;1.23;;;1.23;;
9280;SDS011;4679;47.966;7.958;2023-04-25T12:58:26;0.90;;;0.70;;
9280;SDS011;4679;47.966;7.958;2023-04-25T13:00:28;0.70;;;0.70;;
9280;SDS011;4679;47.966;7.958;2023-04-25T13:02:30;0.70;;;0.70;;
9280;SDS011;4679;47.966;7.958;2023-04-25T13:04:32;2.23;;;0.70;;
9280;SDS011;4679;47.966;7.958;2023-04-25T13:06:34;0.70;;;0.70;;
9280;SDS011;4679;47.966;7.958;2023-04-25T13:08:37;0.70;;;0.70;;
9280;SDS011;4679;47.966;7.958;2023-04-25T13:10:39;0.70;;;0.60;;
9280;SDS011;4679;47.966;7.958;2023-04-25T13:12:42;0.90;;;0.60;;
9280;SDS011;4679;47.966;7.958;2023-04-25T13:14:43;0.83;;;0.60;;
9280;SDS011;4679;47.966;7.958;2023-04-25T13:16:45;2.13;;;0.70;;
9280;SDS011;4679;47.966;7.958;2023-04-25T13:18:47;0.90;;;0.90;;
9280;SDS011;4679;47.966;7.958;2023-04-25T13:20:49;1.60;;;0.40;;
9280;SDS011;4679;47.966;7.958;2023-04-25T13:22:50;0.60;;;0.60;;
9280;SDS011;4679;47.966;7.958;2023-04-25T13:24:53;1.00;;;0.60;;
9280;SDS011;4679;47.966;7.958;2023-04-25T13:26:55;0.50;;;0.50;;
9280;SDS011;4679;47.966;7.958;2023-04-25T13:28:57;0.40;;;0.40;;
9280;SDS011;4679;47.966;7.958;2023-04-25T13:31:00;0.60;;;0.60;;
9280;SDS011;4679;47.966;7.958;2023-04-25T13:33:02;0.73;;;0.73;;
9280;SDS011;4679;47.966;7.958;2023-04-25T13:35:05;1.07;;;0.50;;
9280;SDS011;4679;47.966;7.958;2023-04-25T13:37:08;0.87;;;0.50;;
9280;SDS011;4679;47.966;7.958;2023-04-25T13:39:10;0.67;;;0.57;;
9280;SDS011;4679;47.966;7.958;2023-04-25T13:41:14;0.40;;;0.40;;
9280;SDS011;4679;47.966;7.958;2023-04-25T13:43:19;0.47;;;0.47;;
9280;SDS011;4679;47.966;7.958;2023-04-25T13:45:21;0.50;;;0.50;;
9280;SDS011;4679;47.966;7.958;2023-04-25T13:47:23;0.63;;;0.53;;
9280;SDS011;4679;47.966;7.958;2023-04-25T13:49:26;1.67;;;0.90;;
9280;SDS011;4679;47.966;7.958;2023-04-25T13:51:28;0.90;;;0.90;;
9280;SDS011;4679;47.966;7.958;2023-04-25T13:53:30;0.63;;;0.50;;
9280;SDS011;4679;47.966;7.958;2023-04-25T13:55:33;0.37;;;0.30;;
9280;SDS011;4679;47.966;7.958;2023-04-25T13:57:37;0.47;;;0.40;;
9280;SDS011;4679;47.966;7.958;2023-04-25T13:59:38;0.93;;;0.50;;
9280;SDS011;4679;47.966;7.958;2023-04-25T14:01:41;0.50;;;0.50;;
9280;SDS011;4679;47.966;7.958;2023-04-25T14:03:43;0.73;;;0.40;;
9280;SDS011;4679;47.966;7.958;2023-04-25T14:05:45;0.40;;;0.40;;
9280;SDS011;4679;47.966;7.958;2023-04-25T14:07:47;0.73;;;0.30;;
9280;SDS011;4679;47.966;7.958;2023-04-25T14:09:48;0.50;;;0.50;;
9280;SDS011;4679;47.966;7.958;2023-04-25T14:11:50;0.67;;;0.60;;
9280;SDS011;4679;47.966;7.958;2023-04-25T14:13:53;1.20;;;1.00;;
9280;SDS011;4679;47.966;7.958;2023-04-25T14:15:55;1.03;;;0.63;;
9280;SDS011;4679;47.966;7.958;2023-04-25T14:17:56;1.03;;;0.40;;
9280;SDS011;4679;47.966;7.958;2023-04-25T14:19:58;2.10;;;0.50;;
9280;SDS011;4679;47.966;7.958;2023-04-25T14:22:00;0.57;;;0.57;;
9280;SDS011;4679;47.966;7.958;2023-04-25T14:24:02;0.53;;;0.50;;
9280;SDS011;4679;47.966;7.958;2023-04-25T14:26:05;0.60;;;0.60;;
9280;SDS011;4679;47.966;7.958;2023-04-25T14:28:06;1.03;;;0.40;;
9280;SDS011;4679;47.966;7.958;2023-04-25T14:30:10;0.70;;;0.57;;
9280;SDS011;4679;47.966;7.958;2023-04-25T14:32:12;0.60;;;0.60;;
9280;SDS011;4679;47.966;7.958;2023-04-25T14:34:13;0.50;;;0.50;;
9280;SDS011;4679;47.966;7.958;2023-04-25T14:36:15;0.47;;;0.40;;
9280;SDS011;4679;47.966;7.958;2023-04-25T14:38:17;0.40;;;0.40;;
9280;SDS011;4679;47.966;7.958;2023-04-25T14:40:23;0.80;;;0.40;;
9280;SDS011;4679;47.966;7.958;2023-04-25T14:42:25;0.60;;;0.40;;
9280;SDS011;4679;47.966;7.958;2023-04-25T14:44:26;0.40;;;0.40;;
9280;SDS011;4679;47.966;7.958;2023-04-25T14:46:29;0.33;;;0.33;;
9280;SDS011;4679;47.966;7.958;2023-04-25T14:48:31;0.30;;;0.30;;
9280;SDS011;4679;47.966;7.958;2023-04-25T14:50:33;0.30;;;0.30;;
9280;SDS011;4679;47.966;7.958;2023-04-25T14:52:35;0.20;;;0.20;;
9280;SDS011;4679;47.966;7.958;2023-04-25T14:54:37;0.20;;;0.20;;
9280;SDS011;4679;47.966;7.958;2023-04-25T14:56:38;0.60;;;0.40;;
9280;SDS011;4679;47.966;7.958;2023-04-25T14:58:40;5.67;;;1.03;;
9280;SDS011;4679;47.966;7.958;2023-04-25T15:00:42;0.23;;;0.23;;
9280;SDS011;4679;47.966;7.958;2023-04-25T15:02:45;0.40;;;0.40;;
9280;SDS011;4679;47.966;7.958;2023-04-25T15:04:48;0.20;;;0.20;;
9280;SDS011;4679;47.966;7.958;2023-04-25T15:06:49;0.70;;;0.30;;
9280;SDS011;4679;47.966;7.958;2023-04-25T15:08:51;1.90;;;0.40;;
9280;SDS011;4679;47.966;7.958;2023-04-25T15:10:52;0.30;;;0.30;;
9280;SDS011;4679;47.966;7.958;2023-04-25T15:12:54;0.53;;;0.53;;
9280;SDS011;4679;47.966;7.958;2023-04-25T15:14:56;0.40;;;0.40;;
9280;SDS011;4679;47.966;7.958;2023-04-25T15:16:58;0.43;;;0.43;;
9280;SDS011;4679;47.966;7.958;2023-04-25T15:19:01;1.43;;;0.60;;
9280;SDS011;4679;47.966;7.958;2023-04-25T15:21:04;0.50;;;0.50;;
9280;SDS011;4679;47.966;7.958;2023-04-25T15:23:06;0.50;;;0.50;;
9280;SDS011;4679;47.966;7.958;2023-04-25T15:25:08;0.83;;;0.60;;
9280;SDS011;4679;47.966;7.958;2023-04-25T15:27:11;0.83;;;0.60;;
9280;SDS011;4679;47.966;7.958;2023-04-25T15:29:13;1.40;;;0.40;;
9280;SDS011;4679;47.966;7.958;2023-04-25T15:31:15;1.47;;;0.60;;
9280;SDS011;4679;47.966;7.958;2023-04-25T15:33:17;1.90;;;0.80;;
9280;SDS011;4679;47.966;7.958;2023-04-25T15:35:20;0.53;;;0.53;;
9280;SDS011;4679;47.966;7.958;2023-04-25T15:37:22;0.57;;;0.57;;
9280;SDS011;4679;47.966;7.958;2023-04-25T15:39:24;0.60;;;0.60;;
9280;SDS011;4679;47.966;7.958;2023-04-25T15:41:25;0.57;;;0.57;;
9280;SDS011;4679;47.966;7.958;2023-04-25T15:43:27;0.47;;;0.47;;
9280;SDS011;4679;47.966;7.958;2023-04-25T15:45:29;0.80;;;0.40;;
9280;SDS011;4679;47.966;7.958;2023-04-25T15:47:32;0.60;;;0.40;;
9280;SDS011;4679;47.966;7.958;2023-04-25T15:49:35;0.57;;;0.53;;
9280;SDS011;4679;47.966;7.958;2023-04-25T15:51:38;0.90;;;0.50;;
9280;SDS011;4679;47.966;7.958;2023-04-25T15:53:39;0.70;;;0.70;;
9280;SDS011;4679;47.966;7.958;2023-04-25T15:55:41;1.57;;;1.47;;
9280;SDS011;4679;47.966;7.958;2023-04-25T15:57:43;1.60;;;1.40;;
9280;SDS011;4679;47.966;7.958;2023-04-25T15:59:46;1.40;;;1.30;;
9280;SDS011;4679;47.966;7.958;2023-04-25T16:01:48;1.30;;;1.20;;
9280;SDS011;4679;47.966;7.958;2023-04-25T16:03:51;0.90;;;0.90;;
9280;SDS011;4679;47.966;7.958;2023-04-25T16:05:53;1.00;;;0.80;;
9280;SDS011;4679;47.966;7.958;2023-04-25T16:07:56;0.90;;;0.90;;
9280;SDS011;4679;47.966;7.958;2023-04-25T16:09:57;0.90;;;0.90;;
9280;SDS011;4679;47.966;7.958;2023-04-25T16:11:59;1.10;;;0.90;;
9280;SDS011;4679;47.966;7.958;2023-04-25T16:14:01;1.70;;;1.30;;
9280;SDS011;4679;47.966;7.958;2023-04-25T16:16:03;3.60;;;0.70;;
9280;SDS011;4679;47.966;7.958;2023-04-25T16:18:05;1.40;;;1.30;;
9280;SDS011;4679;47.966;7.958;2023-04-25T16:20:07;1.20;;;0.97;;
9280;SDS011;4679;47.966;7.958;2023-04-25T16:22:11;1.47;;;1.33;;
9280;SDS011;4679;47.966;7.958;2023-04-25T16:24:16;0.60;;;0.60;;
9280;SDS011;4679;47.966;7.958;2023-04-25T16:26:18;0.90;;;0.90;;
9280;SDS011;4679;47.966;7.958;2023-04-25T16:28:21;1.47;;;1.03;;
9280;SDS011;4679;47.966;7.958;2023-04-25T16:30:23;0.83;;;0.80;;
9280;SDS011;4679;47.966;7.958;2023-04-25T16:32:25;1.17;;;1.10;;
9280;SDS011;4679;47.966;7.958;2023-04-25T16:34:27;1.80;;;1.13;;
9280;SDS011;4679;47.966;7.958;2023-04-25T16:36:28;1.40;;;1.00;;
9280;SDS011;4679;47.966;7.958;2023-04-25T16:38:31;1.20;;;1.10;;
9280;SDS011;4679;47.966;7.958;2023-04-25T16:40:34;1.43;;;0.80;;
9280;SDS011;4679;47.966;7.958;2023-04-25T16:42:36;0.73;;;0.73;;
9280;SDS011;4679;47.966;7.958;2023-04-25T16:44:37;0.83;;;0.80;;
9280;SDS011;4679;47.966;7.958;2023-04-25T16:46:39;0.40;;;0.40;;
9280;SDS011;4679;47.966;7.958;2023-04-25T16:48:41;0.50;;;0.50;;
9280;SDS011;4679;47.966;7.958;2023-04-25T16:50:43;1.33;;;0.40;;
9280;SDS011;4679;47.966;7.958;2023-04-25T16:52:44;1.63;;;0.40;;
9280;SDS011;4679;47.966;7.958;2023-04-25T16:54:46;1.37;;;0.97;;
9280;SDS011;4679;47.966;7.958;2023-04-25T16:56:49;1.10;;;1.00;;
9280;SDS011;4679;47.966;7.958;2023-04-25T16:58:51;1.20;;;1.10;;
9280;SDS011;4679;47.966;7.958;2023-04-25T17:00:53;1.43;;;0.80;;
9280;SDS011;4679;47.966;7.958;2023-04-25T17:02:55;1.00;;;0.90;;
9280;SDS011;4679;47.966;7.958;2023-04-25T17:04:57;0.80;;;0.63;;
9280;SDS011;4679;47.966;7.958;2023-04-25T17:06:58;0.60;;;0.60;;
9280;SDS011;4679;47.966;7.958;2023-04-25T17:09:00;0.70;;;0.70;;
9280;SDS011;4679;47.966;7.958;2023-04-25T17:11:02;0.50;;;0.50;;
9280;SDS011;4679;47.966;7.958;2023-04-25T17:13:05;0.93;;;0.30;;
9280;SDS011;4679;47.966;7.958;2023-04-25T17:15:07;0.60;;;0.60;;
9280;SDS011;4679;47.966;7.958;2023-04-25T17:17:10;0.40;;;0.40;;
9280;SDS011;4679;47.966;7.958;2023-04-25T17:19:12;0.40;;;0.40;;
9280;SDS011;4679;47.966;7.958;2023-04-25T17:21:13;0.63;;;0.20;;
9280;SDS011;4679;47.966;7.958;2023-04-25T17:23:15;0.40;;;0.40;;
9280;SDS011;4679;47.966;7.958;2023-04-25T17:25:18;0.70;;;0.30;;
9280;SDS011;4679;47.966;7.958;2023-04-25T17:27:19;0.20;;;0.20;;
9280;SDS011;4679;47.966;7.958;2023-04-25T17:29:22;0.40;;;0.40;;
9280;SDS011;4679;47.966;7.958;2023-04-25T17:31:25;0.40;;;0.40;;
9280;SDS011;4679;47.966;7.958;2023-04-25T17:33:27;1.03;;;0.20;;
9280;SDS011;4679;47.966;7.958;2023-04-25T17:35:29;0.30;;;0.27;;
9280;SDS011;4679;47.966;7.958;2023-04-25T17:37:33;1.03;;;0.50;;
9280;SDS011;4679;47.966;7.958;2023-04-25T17:39:35;0.50;;;0.37;;
9280;SDS011;4679;47.966;7.958;2023-04-25T17:41:36;0.80;;;0.30;;
9280;SDS011;4679;47.966;7.958;2023-04-25T17:43:38;0.30;;;0.30;;
9280;SDS011;4679;47.966;7.958;2023-04-25T17:45:41;0.30;;;0.30;;
9280;SDS011;4679;47.966;7.958;2023-04-25T17:47:43;0.20;;;0.20;;
9280;SDS011;4679;47.966;7.958;2023-04-25T17:49:45;0.30;;;0.30;;
9280;SDS011;4679;47.966;7.958;2023-04-25T17:51:46;0.40;;;0.40;;
9280;SDS011;4679;47.966;7.958;2023-04-25T17:53:48;0.40;;;0.40;;
9280;SDS011;4679;47.966;7.958;2023-04-25T17:55:51;0.37;;;0.37;;
9280;SDS011;4679;47.966;7.958;2023-04-25T17:57:52;0.40;;;0.40;;
9280;SDS011;4679;47.966;7.958;2023-04-25T17:59:55;0.40;;;0.40;;
9280;SDS011;4679;47.966;7.958;2023-04-25T18:01:58;0.50;;;0.50;;
9280;SDS011;4679;47.966;7.958;2023-04-25T18:04:00;0.83;;;0.40;;
9280;SDS011;4679;47.966;7.958;2023-04-25T18:06:03;0.33;;;0.33;;
9280;SDS011;4679;47.966;7.958;2023-04-25T18:08:05;0.50;;;0.50;;
9280;SDS011;4679;47.966;7.958;2023-04-25T18:10:07;0.73;;;0.40;;
9280;SDS011;4679;47.966;7.958;2023-04-25T18:12:11;0.60;;;0.40;;
9280;SDS011;4679;47.966;7.958;2023-04-25T18:14:14;0.60;;;0.50;;
9280;SDS011;4679;47.966;7.958;2023-04-25T18:16:16;0.30;;;0.30;;
9280;SDS011;4679;47.966;7.958;2023-04-25T18:18:19;0.40;;;0.40;;
9280;SDS011;4679;47.966;7.958;2023-04-25T18:20:24;0.60;;;0.60;;
9280;SDS011;4679;47.966;7.958;2023-04-25T18:22:27;0.60;;;0.60;;
9280;SDS011;4679;47.966;7.958;2023-04-25T18:24:29;0.57;;;0.57;;
9280;SDS011;4679;47.966;7.958;2023-04-25T18:26:31;0.50;;;0.50;;